sensor_id;sensor_type;location;lat;lon;timestamp;pressure;altitude;pressure_sealevel;temperature;humidity
77770;BME280;66961;51.482;9.160;2024-02-26T00:01:38;97782.63;;;-1.30;100.00
77770;BME280;66961;51.482;9.160;2024-02-26T00:04:03;97781.66;;;-1.29;100.00
77770;BME280;66961;51.482;9.160;2024-02-26T00:06:30;97772.22;;;-1.30;100.00
77770;BME280;66961;51.482;9.160;2024-02-26T00:08:55;97767.03;;;-1.30;100.00
77770;BME280;66961;51.482;9.160;2024-02-26T00:11:20;97761.53;;;-1.27;100.00
77770;BME280;66961;51.482;9.160;2024-02-26T00:13:46;97765.09;;;-1.28;100.00
77770;BME280;66961;51.482;9.160;2024-02-26T00:16:11;97763.31;;;-1.27;100.00
77770;BME280;66961;51.482;9.160;2024-02-26T00:18:36;97766.19;;;-1.21;100.00
77770;BME280;66961;51.482;9.160;2024-02-26T00:21:02;97768.13;;;-1.23;100.00
77770;BME280;66961;51.482;9.160;2024-02-26T00:23:27;97767.84;;;-1.20;100.00
77770;BME280;66961;51.482;9.160;2024-02-26T00:25:52;97772.09;;;-1.19;100.00
77770;BME280;66961;51.482;9.160;2024-02-26T00:28:18;97770.16;;;-1.17;100.00
77770;BME280;66961;51.482;9.160;2024-02-26T00:30:43;97771.66;;;-1.14;100.00
77770;BME280;66961;51.482;9.160;2024-02-26T00:33:08;97766.34;;;-1.13;100.00
77770;BME280;66961;51.482;9.160;2024-02-26T00:35:33;97764.69;;;-1.14;100.00
77770;BME280;66961;51.482;9.160;2024-02-26T00:37:59;97772.22;;;-1.11;100.00
77770;BME280;66961;51.482;9.160;2024-02-26T00:40:24;97763.31;;;-1.08;100.00
77770;BME280;66961;51.482;9.160;2024-02-26T00:42:49;97776.69;;;-1.03;100.00
77770;BME280;66961;51.482;9.160;2024-02-26T00:45:15;97776.03;;;-1.05;100.00
77770;BME280;66961;51.482;9.160;2024-02-26T00:47:40;97761.91;;;-1.03;100.00
77770;BME280;66961;51.482;9.160;2024-02-26T00:50:05;97770.41;;;-1.01;100.00
77770;BME280;66961;51.482;9.160;2024-02-26T00:52:31;97762.75;;;-1.02;100.00
77770;BME280;66961;51.482;9.160;2024-02-26T00:54:56;97757.69;;;-1.04;100.00
77770;BME280;66961;51.482;9.160;2024-02-26T00:57:21;97761.25;;;-1.05;100.00
77770;BME280;66961;51.482;9.160;2024-02-26T00:59:47;97756.06;;;-1.05;100.00
77770;BME280;66961;51.482;9.160;2024-02-26T01:02:12;97750.88;;;-1.05;100.00
77770;BME280;66961;51.482;9.160;2024-02-26T01:04:37;97755.75;;;-1.02;100.00
77770;BME280;66961;51.482;9.160;2024-02-26T01:07:02;97747.13;;;-1.02;100.00
77770;BME280;66961;51.482;9.160;2024-02-26T01:09:28;97744.53;;;-1.02;100.00
77770;BME280;66961;51.482;9.160;2024-02-26T01:11:53;97744.69;;;-1.04;100.00
77770;BME280;66961;51.482;9.160;2024-02-26T01:14:18;97737.88;;;-1.05;100.00
77770;BME280;66961;51.482;9.160;2024-02-26T01:16:43;97742.91;;;-1.03;100.00
77770;BME280;66961;51.482;9.160;2024-02-26T01:19:09;97731.25;;;-0.99;100.00
77770;BME280;66961;51.482;9.160;2024-02-26T01:21:34;97738.09;;;-0.98;100.00
77770;BME280;66961;51.482;9.160;2024-02-26T01:23:59;97738.63;;;-0.94;100.00
77770;BME280;66961;51.482;9.160;2024-02-26T01:26:24;97742.59;;;-0.90;100.00
77770;BME280;66961;51.482;9.160;2024-02-26T01:28:50;97742.31;;;-0.87;100.00
77770;BME280;66961;51.482;9.160;2024-02-26T01:31:15;97739.88;;;-0.89;100.00
77770;BME280;66961;51.482;9.160;2024-02-26T01:33:40;97732.06;;;-0.89;100.00
77770;BME280;66961;51.482;9.160;2024-02-26T01:36:06;97727.81;;;-0.90;100.00
77770;BME280;66961;51.482;9.160;2024-02-26T01:38:31;97723.56;;;-0.91;100.00
77770;BME280;66961;51.482;9.160;2024-02-26T01:40:56;97728.78;;;-0.91;100.00
77770;BME280;66961;51.482;9.160;2024-02-26T01:43:22;97746.16;;;-0.91;100.00
77770;BME280;66961;51.482;9.160;2024-02-26T01:45:47;97739.31;;;-0.92;100.00
77770;BME280;66961;51.482;9.160;2024-02-26T01:48:12;97736.72;;;-0.92;100.00
77770;BME280;66961;51.482;9.160;2024-02-26T01:50:38;97739.59;;;-0.95;100.00
77770;BME280;66961;51.482;9.160;2024-02-26T01:53:03;97738.09;;;-0.98;100.00
77770;BME280;66961;51.482;9.160;2024-02-26T01:55:29;97734.69;;;-0.98;100.00
77770;BME280;66961;51.482;9.160;2024-02-26T01:57:55;97738.09;;;-0.98;100.00
77770;BME280;66961;51.482;9.160;2024-02-26T02:00:20;97740.84;;;-1.00;100.00
77770;BME280;66961;51.482;9.160;2024-02-26T02:02:46;97732.22;;;-1.00;100.00
77770;BME280;66961;51.482;9.160;2024-02-26T02:05:12;97729.91;;;-1.03;100.00
77770;BME280;66961;51.482;9.160;2024-02-26T02:07:37;97739.66;;;-1.05;100.00
77770;BME280;66961;51.482;9.160;2024-02-26T02:10:03;97738.97;;;-1.07;100.00
77770;BME280;66961;51.482;9.160;2024-02-26T02:12:29;97744.84;;;-1.05;100.00
77770;BME280;66961;51.482;9.160;2024-02-26T02:14:54;97737.03;;;-1.05;100.00
77770;BME280;66961;51.482;9.160;2024-02-26T02:17:20;97722.53;;;-1.08;100.00
77770;BME280;66961;51.482;9.160;2024-02-26T02:19:45;97739.47;;;-0.94;100.00
77770;BME280;66961;51.482;9.160;2024-02-26T02:22:11;97741.38;;;-0.96;100.00
77770;BME280;66961;51.482;9.160;2024-02-26T02:24:36;97743.97;;;-0.96;100.00
77770;BME280;66961;51.482;9.160;2024-02-26T02:27:01;97747.94;;;-0.92;100.00
77770;BME280;66961;51.482;9.160;2024-02-26T02:29:27;97748.75;;;-0.91;100.00
77770;BME280;66961;51.482;9.160;2024-02-26T02:31:52;97739.19;;;-0.91;100.00
77770;BME280;66961;51.482;9.160;2024-02-26T02:34:17;97738.91;;;-0.88;100.00
77770;BME280;66961;51.482;9.160;2024-02-26T02:36:52;97737.81;;;-0.85;100.00
77770;BME280;66961;51.482;9.160;2024-02-26T02:39:17;97735.19;;;-0.85;100.00
77770;BME280;66961;51.482;9.160;2024-02-26T02:41:42;97729.31;;;-0.87;100.00
77770;BME280;66961;51.482;9.160;2024-02-26T02:44:08;97737.13;;;-0.87;100.00
77770;BME280;66961;51.482;9.160;2024-02-26T02:46:33;97738.09;;;-0.88;100.00
77770;BME280;66961;51.482;9.160;2024-02-26T02:48:58;97736.16;;;-0.86;100.00
77770;BME280;66961;51.482;9.160;2024-02-26T02:51:23;97736.84;;;-0.84;100.00
77770;BME280;66961;51.482;9.160;2024-02-26T02:53:48;97730.97;;;-0.86;100.00
77770;BME280;66961;51.482;9.160;2024-02-26T02:56:14;97741.75;;;-0.81;100.00
77770;BME280;66961;51.482;9.160;2024-02-26T02:58:39;97739.84;;;-0.79;100.00
77770;BME280;66961;51.482;9.160;2024-02-26T03:01:04;97733.41;;;-0.75;100.00
77770;BME280;66961;51.482;9.160;2024-02-26T03:03:30;97740.34;;;-0.66;100.00
77770;BME280;66961;51.482;9.160;2024-02-26T03:05:55;97735.69;;;-0.62;100.00
77770;BME280;66961;51.482;9.160;2024-02-26T03:08:20;97743.91;;;-0.57;100.00
77770;BME280;66961;51.482;9.160;2024-02-26T03:10:45;97741.16;;;-0.56;100.00
77770;BME280;66961;51.482;9.160;2024-02-26T03:13:11;97740.19;;;-0.55;100.00
77770;BME280;66961;51.482;9.160;2024-02-26T03:15:36;97737.13;;;-0.50;100.00
77770;BME280;66961;51.482;9.160;2024-02-26T03:18:01;97739.31;;;-0.46;100.00
77770;BME280;66961;51.482;9.160;2024-02-26T03:20:26;97736.69;;;-0.46;100.00
77770;BME280;66961;51.482;9.160;2024-02-26T03:22:52;97747.22;;;-0.38;100.00
77770;BME280;66961;51.482;9.160;2024-02-26T03:25:17;97756.78;;;-0.28;100.00
77770;BME280;66961;51.482;9.160;2024-02-26T03:27:42;97751.00;;;-0.22;100.00
77770;BME280;66961;51.482;9.160;2024-02-26T03:30:08;97752.50;;;-0.20;100.00
77770;BME280;66961;51.482;9.160;2024-02-26T03:32:34;97746.19;;;-0.17;100.00
77770;BME280;66961;51.482;9.160;2024-02-26T03:34:59;97742.75;;;-0.18;100.00
77770;BME280;66961;51.482;9.160;2024-02-26T03:37:24;97742.84;;;-0.10;100.00
77770;BME280;66961;51.482;9.160;2024-02-26T03:39:49;97733.94;;;-0.07;100.00
77770;BME280;66961;51.482;9.160;2024-02-26T03:42:15;97710.00;;;-0.20;100.00
77770;BME280;66961;51.482;9.160;2024-02-26T03:44:40;97725.28;;;-0.08;100.00
77770;BME280;66961;51.482;9.160;2024-02-26T03:47:05;97730.22;;;-0.05;100.00
77770;BME280;66961;51.482;9.160;2024-02-26T03:49:30;97721.59;;;-0.05;100.00
77770;BME280;66961;51.482;9.160;2024-02-26T03:51:56;97722.09;;;-0.02;100.00
77770;BME280;66961;51.482;9.160;2024-02-26T03:54:21;97729.31;;;0.05;100.00
77770;BME280;66961;51.482;9.160;2024-02-26T03:56:46;97720.38;;;0.07;100.00
77770;BME280;66961;51.482;9.160;2024-02-26T03:59:12;97725.75;;;0.06;100.00
77770;BME280;66961;51.482;9.160;2024-02-26T04:01:37;97711.09;;;0.05;100.00
77770;BME280;66961;51.482;9.160;2024-02-26T04:04:02;97725.59;;;0.07;100.00
77770;BME280;66961;51.482;9.160;2024-02-26T04:06:28;97720.63;;;0.14;100.00
77770;BME280;66961;51.482;9.160;2024-02-26T04:08:53;97735.97;;;0.17;100.00
77770;BME280;66961;51.482;9.160;2024-02-26T04:11:18;97752.19;;;0.28;100.00
77770;BME280;66961;51.482;9.160;2024-02-26T04:13:44;97760.41;;;0.33;100.00
77770;BME280;66961;51.482;9.160;2024-02-26T04:16:09;97751.47;;;0.36;100.00
77770;BME280;66961;51.482;9.160;2024-02-26T04:18:35;97737.25;;;0.30;100.00
77770;BME280;66961;51.482;9.160;2024-02-26T04:21:00;97738.28;;;0.38;100.00
77770;BME280;66961;51.482;9.160;2024-02-26T04:23:25;97736.22;;;0.41;100.00
77770;BME280;66961;51.482;9.160;2024-02-26T04:25:50;97750.06;;;0.42;100.00
77770;BME280;66961;51.482;9.160;2024-02-26T04:28:16;97756.75;;;0.44;100.00
77770;BME280;66961;51.482;9.160;2024-02-26T04:30:41;97768.00;;;0.45;100.00
77770;BME280;66961;51.482;9.160;2024-02-26T04:33:08;97767.72;;;0.48;100.00
77770;BME280;66961;51.482;9.160;2024-02-26T04:35:33;97757.34;;;0.56;100.00
77770;BME280;66961;51.482;9.160;2024-02-26T04:37:58;97753.75;;;0.57;100.00
77770;BME280;66961;51.482;9.160;2024-02-26T04:40:23;97756.22;;;0.58;100.00
77770;BME280;66961;51.482;9.160;2024-02-26T04:42:49;97754.94;;;0.62;100.00
77770;BME280;66961;51.482;9.160;2024-02-26T04:45:14;97756.59;;;0.63;100.00
77770;BME280;66961;51.482;9.160;2024-02-26T04:47:39;97761.66;;;0.65;100.00
77770;BME280;66961;51.482;9.160;2024-02-26T04:50:05;97756.16;;;0.68;100.00
77770;BME280;66961;51.482;9.160;2024-02-26T04:52:30;97756.81;;;0.70;100.00
77770;BME280;66961;51.482;9.160;2024-02-26T04:54:56;97746.38;;;0.70;100.00
77770;BME280;66961;51.482;9.160;2024-02-26T04:57:21;97747.06;;;0.72;100.00
77770;BME280;66961;51.482;9.160;2024-02-26T04:59:47;97756.66;;;0.72;100.00
77770;BME280;66961;51.482;9.160;2024-02-26T05:02:12;97765.59;;;0.69;100.00
77770;BME280;66961;51.482;9.160;2024-02-26T05:04:38;97772.75;;;0.67;100.00
77770;BME280;66961;51.482;9.160;2024-02-26T05:07:03;97774.09;;;0.71;100.00
77770;BME280;66961;51.482;9.160;2024-02-26T05:09:29;97776.34;;;0.66;100.00
77770;BME280;66961;51.482;9.160;2024-02-26T05:11:54;97765.09;;;0.65;100.00
77770;BME280;66961;51.482;9.160;2024-02-26T05:14:20;97755.78;;;0.63;100.00
77770;BME280;66961;51.482;9.160;2024-02-26T05:16:45;97753.69;;;0.66;100.00
77770;BME280;66961;51.482;9.160;2024-02-26T05:19:11;97753.03;;;0.64;100.00
77770;BME280;66961;51.482;9.160;2024-02-26T05:21:36;97751.53;;;0.62;100.00
77770;BME280;66961;51.482;9.160;2024-02-26T05:24:01;97751.69;;;0.60;100.00
77770;BME280;66961;51.482;9.160;2024-02-26T05:26:27;97751.00;;;0.58;100.00
77770;BME280;66961;51.482;9.160;2024-02-26T05:28:52;97744.31;;;0.56;100.00
77770;BME280;66961;51.482;9.160;2024-02-26T05:31:17;97745.94;;;0.57;100.00
77770;BME280;66961;51.482;9.160;2024-02-26T05:33:43;97749.66;;;0.54;100.00
77770;BME280;66961;51.482;9.160;2024-02-26T05:36:08;97752.13;;;0.56;100.00
77770;BME280;66961;51.482;9.160;2024-02-26T05:38:33;97754.28;;;0.60;100.00
77770;BME280;66961;51.482;9.160;2024-02-26T05:40:59;97750.41;;;0.64;100.00
77770;BME280;66961;51.482;9.160;2024-02-26T05:43:27;97741.31;;;0.69;100.00
77770;BME280;66961;51.482;9.160;2024-02-26T05:45:53;97748.19;;;0.70;100.00
77770;BME280;66961;51.482;9.160;2024-02-26T05:48:18;97748.84;;;0.72;100.00
77770;BME280;66961;51.482;9.160;2024-02-26T05:50:44;97757.34;;;0.74;100.00
77770;BME280;66961;51.482;9.160;2024-02-26T05:53:09;97753.09;;;0.73;100.00
77770;BME280;66961;51.482;9.160;2024-02-26T05:55:35;97753.53;;;0.68;100.00
77770;BME280;66961;51.482;9.160;2024-02-26T05:58:00;97752.06;;;0.65;100.00
77770;BME280;66961;51.482;9.160;2024-02-26T06:00:25;97757.13;;;0.67;100.00
77770;BME280;66961;51.482;9.160;2024-02-26T06:02:50;97764.94;;;0.67;100.00
77770;BME280;66961;51.482;9.160;2024-02-26T06:05:16;97781.41;;;0.68;100.00
77770;BME280;66961;51.482;9.160;2024-02-26T06:07:41;97789.81;;;0.79;100.00
77770;BME280;66961;51.482;9.160;2024-02-26T06:10:07;97793.47;;;0.86;100.00
77770;BME280;66961;51.482;9.160;2024-02-26T06:12:35;97795.34;;;0.94;100.00
77770;BME280;66961;51.482;9.160;2024-02-26T06:15:00;97797.78;;;0.95;100.00
77770;BME280;66961;51.482;9.160;2024-02-26T06:17:25;97798.09;;;0.92;100.00
77770;BME280;66961;51.482;9.160;2024-02-26T06:19:50;97800.19;;;0.89;100.00
77770;BME280;66961;51.482;9.160;2024-02-26T06:22:16;97807.34;;;0.87;100.00
77770;BME280;66961;51.482;9.160;2024-02-26T06:24:41;97816.41;;;0.83;100.00
77770;BME280;66961;51.482;9.160;2024-02-26T06:27:06;97817.25;;;0.83;100.00
77770;BME280;66961;51.482;9.160;2024-02-26T06:29:31;97815.16;;;0.87;100.00
77770;BME280;66961;51.482;9.160;2024-02-26T06:31:57;97809.25;;;0.85;100.00
77770;BME280;66961;51.482;9.160;2024-02-26T06:34:22;97825.44;;;0.88;100.00
77770;BME280;66961;51.482;9.160;2024-02-26T06:36:47;97809.56;;;0.82;100.00
77770;BME280;66961;51.482;9.160;2024-02-26T06:39:12;97823.88;;;0.95;100.00
77770;BME280;66961;51.482;9.160;2024-02-26T06:41:38;97827.97;;;0.98;100.00
77770;BME280;66961;51.482;9.160;2024-02-26T06:44:03;97827.81;;;0.99;100.00
77770;BME280;66961;51.482;9.160;2024-02-26T06:46:29;97832.25;;;1.07;100.00
77770;BME280;66961;51.482;9.160;2024-02-26T06:48:54;97836.06;;;1.13;100.00
77770;BME280;66961;51.482;9.160;2024-02-26T06:51:19;97833.97;;;1.16;100.00
77770;BME280;66961;51.482;9.160;2024-02-26T06:53:44;97839.56;;;1.21;100.00
77770;BME280;66961;51.482;9.160;2024-02-26T06:56:10;97831.13;;;1.27;100.00
77770;BME280;66961;51.482;9.160;2024-02-26T06:58:35;97833.44;;;1.30;100.00
77770;BME280;66961;51.482;9.160;2024-02-26T07:01:00;97831.50;;;1.32;100.00
77770;BME280;66961;51.482;9.160;2024-02-26T07:03:25;97840.00;;;1.35;100.00
77770;BME280;66961;51.482;9.160;2024-02-26T07:05:51;97843.13;;;1.38;100.00
77770;BME280;66961;51.482;9.160;2024-02-26T07:08:16;97841.50;;;1.37;100.00
77770;BME280;66961;51.482;9.160;2024-02-26T07:10:42;97841.03;;;1.42;100.00
77770;BME280;66961;51.482;9.160;2024-02-26T07:13:07;97834.38;;;1.47;100.00
77770;BME280;66961;51.482;9.160;2024-02-26T07:15:32;97842.59;;;1.52;100.00
77770;BME280;66961;51.482;9.160;2024-02-26T07:17:57;97848.94;;;1.58;100.00
77770;BME280;66961;51.482;9.160;2024-02-26T07:20:23;97848.81;;;1.59;100.00
77770;BME280;66961;51.482;9.160;2024-02-26T07:22:48;97851.97;;;1.71;100.00
77770;BME280;66961;51.482;9.160;2024-02-26T07:25:13;97846.66;;;1.81;100.00
77770;BME280;66961;51.482;9.160;2024-02-26T07:27:39;97854.53;;;1.89;100.00
77770;BME280;66961;51.482;9.160;2024-02-26T07:30:05;97863.25;;;1.97;100.00
77770;BME280;66961;51.482;9.160;2024-02-26T07:32:31;97857.41;;;2.04;100.00
77770;BME280;66961;51.482;9.160;2024-02-26T07:34:56;97862.31;;;2.07;100.00
77770;BME280;66961;51.482;9.160;2024-02-26T07:37:21;97860.34;;;2.09;100.00
77770;BME280;66961;51.482;9.160;2024-02-26T07:39:47;97875.41;;;2.15;100.00
77770;BME280;66961;51.482;9.160;2024-02-26T07:42:12;97875.44;;;2.23;100.00
77770;BME280;66961;51.482;9.160;2024-02-26T07:44:37;97873.69;;;2.31;100.00
77770;BME280;66961;51.482;9.160;2024-02-26T07:47:02;97876.84;;;2.43;100.00
77770;BME280;66961;51.482;9.160;2024-02-26T07:49:28;97878.69;;;2.51;100.00
77770;BME280;66961;51.482;9.160;2024-02-26T07:51:53;97885.22;;;2.63;100.00
77770;BME280;66961;51.482;9.160;2024-02-26T07:54:18;97883.31;;;2.73;100.00
77770;BME280;66961;51.482;9.160;2024-02-26T07:59:11;97887.75;;;2.89;100.00
77770;BME280;66961;51.482;9.160;2024-02-26T08:01:36;97883.38;;;2.97;100.00
77770;BME280;66961;51.482;9.160;2024-02-26T08:04:01;97891.25;;;3.06;100.00
77770;BME280;66961;51.482;9.160;2024-02-26T08:06:27;97899.09;;;3.14;100.00
77770;BME280;66961;51.482;9.160;2024-02-26T08:08:52;97903.19;;;3.24;100.00
77770;BME280;66961;51.482;9.160;2024-02-26T08:11:17;97898.47;;;3.36;100.00
77770;BME280;66961;51.482;9.160;2024-02-26T08:13:42;97900.59;;;3.49;100.00
77770;BME280;66961;51.482;9.160;2024-02-26T08:16:08;97903.38;;;3.63;100.00
77770;BME280;66961;51.482;9.160;2024-02-26T08:18:33;97916.78;;;3.77;100.00
77770;BME280;66961;51.482;9.160;2024-02-26T08:20:58;97906.63;;;3.82;100.00
77770;BME280;66961;51.482;9.160;2024-02-26T08:23:23;97907.09;;;4.02;100.00
77770;BME280;66961;51.482;9.160;2024-02-26T08:25:49;97916.72;;;4.17;99.19
77770;BME280;66961;51.482;9.160;2024-02-26T08:28:14;97911.25;;;4.35;99.55
77770;BME280;66961;51.482;9.160;2024-02-26T08:30:39;97911.72;;;4.47;100.00
77770;BME280;66961;51.482;9.160;2024-02-26T08:33:04;97904.13;;;4.60;97.81
77770;BME280;66961;51.482;9.160;2024-02-26T08:35:30;97917.84;;;4.70;96.38
77770;BME280;66961;51.482;9.160;2024-02-26T08:40:28;97905.84;;;5.07;95.59
77770;BME280;66961;51.482;9.160;2024-02-26T08:42:54;97914.91;;;5.27;96.25
77770;BME280;66961;51.482;9.160;2024-02-26T08:45:19;97908.50;;;5.52;95.01
77770;BME280;66961;51.482;9.160;2024-02-26T08:47:45;97902.00;;;5.78;92.93
77770;BME280;66961;51.482;9.160;2024-02-26T08:50:10;97905.19;;;5.96;91.26
77770;BME280;66961;51.482;9.160;2024-02-26T08:52:36;97902.75;;;6.24;91.18
77770;BME280;66961;51.482;9.160;2024-02-26T08:55:01;97920.44;;;6.45;88.76
77770;BME280;66961;51.482;9.160;2024-02-26T08:57:26;97907.56;;;6.64;87.78
77770;BME280;66961;51.482;9.160;2024-02-26T08:59:51;97911.63;;;6.67;84.10
77770;BME280;66961;51.482;9.160;2024-02-26T09:02:17;97913.69;;;6.86;84.60
77770;BME280;66961;51.482;9.160;2024-02-26T09:04:42;97904.31;;;6.98;84.85
77770;BME280;66961;51.482;9.160;2024-02-26T09:07:07;97906.75;;;7.00;83.48
77770;BME280;66961;51.482;9.160;2024-02-26T09:09:32;97907.34;;;7.17;84.42
77770;BME280;66961;51.482;9.160;2024-02-26T09:11:58;97914.75;;;7.07;82.94
77770;BME280;66961;51.482;9.160;2024-02-26T09:14:23;97911.50;;;7.26;84.36
77770;BME280;66961;51.482;9.160;2024-02-26T09:16:48;97925.06;;;7.44;83.68
77770;BME280;66961;51.482;9.160;2024-02-26T09:19:14;97924.31;;;7.50;81.67
77770;BME280;66961;51.482;9.160;2024-02-26T09:21:43;97921.03;;;7.70;82.43
77770;BME280;66961;51.482;9.160;2024-02-26T09:24:09;97921.72;;;7.78;80.28
77770;BME280;66961;51.482;9.160;2024-02-26T09:26:34;97908.34;;;7.80;81.46
77770;BME280;66961;51.482;9.160;2024-02-26T09:28:59;97929.34;;;7.94;81.66
77770;BME280;66961;51.482;9.160;2024-02-26T09:31:24;97913.91;;;7.91;81.42
77770;BME280;66961;51.482;9.160;2024-02-26T09:33:50;97924.44;;;8.13;82.62
77770;BME280;66961;51.482;9.160;2024-02-26T09:36:15;97915.78;;;7.97;81.13
77770;BME280;66961;51.482;9.160;2024-02-26T09:38:40;97918.84;;;8.01;81.81
77770;BME280;66961;51.482;9.160;2024-02-26T09:41:05;97916.34;;;7.93;81.90
77770;BME280;66961;51.482;9.160;2024-02-26T09:43:35;97916.69;;;8.11;81.07
77770;BME280;66961;51.482;9.160;2024-02-26T09:46:01;97919.88;;;8.28;81.84
77770;BME280;66961;51.482;9.160;2024-02-26T09:48:26;97915.75;;;8.19;80.61
77770;BME280;66961;51.482;9.160;2024-02-26T09:50:52;97915.41;;;8.28;78.61
77770;BME280;66961;51.482;9.160;2024-02-26T09:53:18;97920.34;;;8.38;78.91
77770;BME280;66961;51.482;9.160;2024-02-26T09:55:43;97922.53;;;8.62;77.67
77770;BME280;66961;51.482;9.160;2024-02-26T09:58:10;97922.75;;;8.68;76.02
77770;BME280;66961;51.482;9.160;2024-02-26T10:00:37;97936.66;;;8.83;76.55
77770;BME280;66961;51.482;9.160;2024-02-26T10:03:05;97938.47;;;8.89;76.32
77770;BME280;66961;51.482;9.160;2024-02-26T10:05:32;97936.44;;;8.84;73.51
77770;BME280;66961;51.482;9.160;2024-02-26T10:07:58;97926.31;;;8.94;75.13
77770;BME280;66961;51.482;9.160;2024-02-26T10:10:24;97919.84;;;9.04;75.43
77770;BME280;66961;51.482;9.160;2024-02-26T10:12:50;97924.16;;;9.11;74.23
77770;BME280;66961;51.482;9.160;2024-02-26T10:15:15;97925.50;;;8.94;74.21
77770;BME280;66961;51.482;9.160;2024-02-26T10:17:41;97926.38;;;9.08;75.18
77770;BME280;66961;51.482;9.160;2024-02-26T10:20:17;97921.84;;;8.95;73.34
77770;BME280;66961;51.482;9.160;2024-02-26T10:22:43;97932.38;;;8.88;72.83
77770;BME280;66961;51.482;9.160;2024-02-26T10:25:09;97933.81;;;8.91;74.36
77770;BME280;66961;51.482;9.160;2024-02-26T10:27:35;97942.59;;;8.98;74.28
77770;BME280;66961;51.482;9.160;2024-02-26T10:30:20;97952.59;;;9.09;74.49
77770;BME280;66961;51.482;9.160;2024-02-26T10:32:45;97943.25;;;9.07;72.86
77770;BME280;66961;51.482;9.160;2024-02-26T10:35:11;97950.72;;;8.96;72.98
77770;BME280;66961;51.482;9.160;2024-02-26T10:37:36;97945.16;;;8.78;71.85
77770;BME280;66961;51.482;9.160;2024-02-26T10:40:02;97961.63;;;8.87;72.18
77770;BME280;66961;51.482;9.160;2024-02-26T10:42:27;97958.81;;;8.88;72.79
77770;BME280;66961;51.482;9.160;2024-02-26T10:44:52;97967.16;;;8.92;71.55
77770;BME280;66961;51.482;9.160;2024-02-26T10:47:18;97967.59;;;8.95;72.26
77770;BME280;66961;51.482;9.160;2024-02-26T10:49:47;97975.31;;;8.97;72.12
77770;BME280;66961;51.482;9.160;2024-02-26T10:52:12;97975.91;;;8.92;71.86
77770;BME280;66961;51.482;9.160;2024-02-26T10:54:41;97970.41;;;8.94;72.54
77770;BME280;66961;51.482;9.160;2024-02-26T10:57:08;97971.03;;;8.96;72.25
77770;BME280;66961;51.482;9.160;2024-02-26T10:59:35;97979.47;;;9.13;72.70
77770;BME280;66961;51.482;9.160;2024-02-26T11:02:00;97982.72;;;9.15;72.67
77770;BME280;66961;51.482;9.160;2024-02-26T11:04:26;97985.50;;;9.00;71.32
77770;BME280;66961;51.482;9.160;2024-02-26T11:06:53;97984.31;;;9.09;71.95
77770;BME280;66961;51.482;9.160;2024-02-26T11:09:19;97985.25;;;8.95;71.74
77770;BME280;66961;51.482;9.160;2024-02-26T11:11:45;97989.91;;;8.93;70.94
77770;BME280;66961;51.482;9.160;2024-02-26T11:14:10;97993.34;;;8.87;71.39
77770;BME280;66961;51.482;9.160;2024-02-26T11:16:37;97994.97;;;8.88;72.44
77770;BME280;66961;51.482;9.160;2024-02-26T11:19:06;97990.31;;;8.83;71.78
77770;BME280;66961;51.482;9.160;2024-02-26T11:21:33;97989.06;;;8.86;73.40
77770;BME280;66961;51.482;9.160;2024-02-26T11:23:58;97979.31;;;8.86;72.28
77770;BME280;66961;51.482;9.160;2024-02-26T11:26:25;97978.94;;;8.83;72.35
77770;BME280;66961;51.482;9.160;2024-02-26T11:28:52;97978.69;;;8.84;73.32
77770;BME280;66961;51.482;9.160;2024-02-26T11:31:18;97981.38;;;8.91;72.06
77770;BME280;66961;51.482;9.160;2024-02-26T11:33:43;97980.16;;;8.93;72.83
77770;BME280;66961;51.482;9.160;2024-02-26T11:36:09;97982.44;;;8.96;71.98
77770;BME280;66961;51.482;9.160;2024-02-26T11:38:35;97976.09;;;8.91;71.48
77770;BME280;66961;51.482;9.160;2024-02-26T11:41:01;97976.06;;;8.84;72.31
77770;BME280;66961;51.482;9.160;2024-02-26T11:46:38;97977.13;;;8.55;71.33
77770;BME280;66961;51.482;9.160;2024-02-26T11:51:53;97976.44;;;8.47;74.16
77770;BME280;66961;51.482;9.160;2024-02-26T11:54:38;97981.72;;;8.47;72.87
77770;BME280;66961;51.482;9.160;2024-02-26T11:57:04;97971.16;;;8.47;74.21
77770;BME280;66961;51.482;9.160;2024-02-26T11:59:39;97978.56;;;8.58;75.37
77770;BME280;66961;51.482;9.160;2024-02-26T12:02:04;97975.53;;;8.61;73.08
77770;BME280;66961;51.482;9.160;2024-02-26T12:04:30;97980.19;;;8.59;74.06
77770;BME280;66961;51.482;9.160;2024-02-26T12:06:57;97978.56;;;8.58;72.85
77770;BME280;66961;51.482;9.160;2024-02-26T12:09:33;97991.53;;;8.53;73.40
77770;BME280;66961;51.482;9.160;2024-02-26T12:12:01;97989.75;;;8.60;73.96
77770;BME280;66961;51.482;9.160;2024-02-26T12:14:26;97981.19;;;8.58;73.27
77770;BME280;66961;51.482;9.160;2024-02-26T12:16:52;97997.34;;;8.70;73.63
77770;BME280;66961;51.482;9.160;2024-02-26T12:19:18;98000.84;;;8.77;73.70
77770;BME280;66961;51.482;9.160;2024-02-26T12:21:43;98005.13;;;8.84;74.19
77770;BME280;66961;51.482;9.160;2024-02-26T12:24:15;98001.28;;;8.87;74.32
77770;BME280;66961;51.482;9.160;2024-02-26T12:26:40;98005.13;;;8.84;74.41
77770;BME280;66961;51.482;9.160;2024-02-26T12:29:06;98013.47;;;8.81;74.34
77770;BME280;66961;51.482;9.160;2024-02-26T12:31:34;98016.25;;;8.73;73.92
77770;BME280;66961;51.482;9.160;2024-02-26T12:34:01;98013.19;;;8.70;73.80
77770;BME280;66961;51.482;9.160;2024-02-26T12:36:26;98013.56;;;8.67;74.44
77770;BME280;66961;51.482;9.160;2024-02-26T12:38:52;98028.06;;;8.77;74.90
77770;BME280;66961;51.482;9.160;2024-02-26T12:41:17;98022.41;;;8.80;74.87
77770;BME280;66961;51.482;9.160;2024-02-26T12:43:43;98014.47;;;8.80;74.24
77770;BME280;66961;51.482;9.160;2024-02-26T12:46:08;98028.91;;;8.84;73.83
77770;BME280;66961;51.482;9.160;2024-02-26T12:48:34;98026.88;;;8.80;73.68
77770;BME280;66961;51.482;9.160;2024-02-26T12:50:59;98021.78;;;8.78;73.57
77770;BME280;66961;51.482;9.160;2024-02-26T12:53:26;98035.38;;;8.75;73.27
77770;BME280;66961;51.482;9.160;2024-02-26T12:55:51;98033.09;;;8.72;73.72
77770;BME280;66961;51.482;9.160;2024-02-26T12:58:17;98022.25;;;8.60;73.27
77770;BME280;66961;51.482;9.160;2024-02-26T13:00:43;98036.75;;;8.71;74.60
77770;BME280;66961;51.482;9.160;2024-02-26T13:03:09;98045.94;;;8.75;74.83